Terminal Aerodrome Forecast
Issued by NWS Columbia, SC

Home | Current Version | Previous Version | Text Only | Print | Product List | Glossary On
Versions: 1 2 3 4 5 6 7 8 9 10 11 12 13 14 15 16 17 18 19 20 21 22 23 24 25 26 27 28 29 30 31 32 33 34
992
FTUS42 KCAE 230251 AAB
TAFCAE
TAF AMD
KCAE 230251Z 2303/2324 12012G20KT 3SM -SHRA OVC010 WS020/13035KT
      TEMPO 2303/2304 VRB15G30KT 1 1/2SM TSRA OVC009CB
     FM230500 17012KT P6SM VCSH BKN020
     FM230700 23012G20KT P6SM BKN025
     FM231300 23010KT 3SM -SHRA OVC009
     FM231800 28012G20KT P6SM BKN035=

USA.gov is the U.S. government's official web portal to all federal, state and local government web resources and services.